Logo AVAMET
Benvolgut visitant, si us plau, ingressa Recuperar contrasenya

Alcalá de la Selva Virgen de la Vega

Dades diàries. Acumulats / Últims 30 dies disponibles

Data Temperatura (°C) Humitat rel. (%) Pressió rel. (hPa) Vent (km/h) Precipitació
Mínima Mitjana Màxima Amplitud
tèrmica
Mínima Mitjana Màxima Mínima Mitjana Màxima Predom. Mitjana Ràfega
màxima
Total
(mm)
Índex-n
Mínima Mitjana Màxima Mínima Mitjana Màxima n
0 a 1
P0 max
mm 5'
Dades mensuals acumulades fins l'últim dia disponible
08/2019 1,6 7,2 13,6 17,3 19,2 27,1 30,7 29,1 23 69 95 1.010 1.016 1.024   2,2 32,2 8,0
Dades anuals acumulades fins l'últim dia disponible
2019 1,6 7,0 13,6 17,1 19,2 26,7 32,1 30,5 23 69 95 1.006 1.015 1.024   2,5 38,6 52,8
Últims 30 dies disponibles
20-08-2019 13,6     16,1     19,2 5,6 78 85 90 1.015 1.017 1.021 SSO 3,1 24,1 1,6
19-08-2019 5,4     16,5     26,4 21,0 50 76 95 1.014 1.015 1.017 SSO 3,3 32,2 0,0
18-08-2019 7,2     18,6     30,7 23,5 23 64 94 1.011 1.014 1.016 SSO 2,6 30,6 0,0
17-08-2019 6,6     18,2     29,8 23,2 30 69 95 1.013 1.016 1.018 SSO 2,0 27,4 0,0
16-08-2019 7,0     17,3     27,1 20,1 46 77 95 1.016 1.018 1.021 SSO 2,9 24,1 0,0
15-08-2019 5,6     15,6     27,0 21,4 36 77 95 1.017 1.020 1.022 S 1,7 22,5 5,2
14-08-2019 1,6     14,4     25,7 24,1 30 67 94 1.020 1.022 1.024 S 0,9 19,3 0,0
13-08-2019 7,2     13,7     19,2 12,0 64 75 87 1.018 1.019 1.022 SO 1,0 22,5 1,2
12-08-2019 8,3     15,2     23,6 15,3 33 69 92 1.013 1.015 1.020 SSE 0,9 19,3 0,0
11-08-2019 11,5     19,2     26,9 15,4 26 63 93 1.012 1.014 1.017 SSO 2,4 29,0 0,0
10-08-2019 6,8     17,8     27,7 20,9 46 74 95 1.015 1.017 1.018 SSO 3,4 27,4 0,0
09-08-2019 5,6     18,7     30,2 24,6 31 62 94 1.014 1.015 1.017 SSO 1,6 27,4 0,0
08-08-2019 6,9     19,0     29,1 22,2 35 61 92 1.012 1.014 1.015 O 2,5 30,6 0,0
07-08-2019 6,8     17,2     26,4 19,6 29 61 91 1.011 1.013 1.015 S 1,0 17,7 0,0
06-08-2019 9,4     19,1     30,6 21,2 24 65 95 1.010 1.013 1.015 SSO 2,2 30,6 0,0
05-08-2019 6,9     18,4     29,1 22,2 36 68 95 1.012 1.015 1.017 SSO 3,0 25,7 0,0
04-08-2019 7,2     18,4     29,4 22,2 34 69 95 1.013 1.015 1.016 SSO 2,6 27,4 0,0
03-08-2019 5,9     17,6     27,9 22,0 44 70 95 1.013 1.015 1.017 SSO 2,5 24,1 0,0
02-08-2019 6,8     17,8     28,2 21,4 28 69 95 1.014 1.015 1.017 SE 2,6 25,7 0,0
01-08-2019 7,6     18,0     27,7 20,1 44 68 93 1.011 1.014 1.017 SO 2,7 25,7 0,0
31-07-2019 5,9     15,1     22,7 16,8 58 79 94 1.016 1.017 1.018 SSO 3,8 27,4 0,0
30-07-2019 4,3     15,6     25,7 21,4 37 73 94 1.014 1.015 1.017 SSO 3,6 25,7 0,0
29-07-2019 2,9     15,2     26,6 23,7 36 70 95 1.011 1.013 1.015 SSO 2,1 25,7 0,0
28-07-2019 7,7     14,8     23,3 15,6 29 66 86 1.010 1.011 1.013 SSO 1,9 25,7 0,0
27-07-2019 5,7     13,8     21,9 16,2 48 76 95 1.006 1.008 1.011 S 1,0 19,3 0,0
26-07-2019 6,7     14,6     24,3 17,6 48 78 92 1.010 1.012 1.016 SSO 2,1 25,7 11,8
25-07-2019 5,1     17,7     28,7 23,6 35 63 93 1.014 1.016 1.018 S 3,5 29,0 0,0
24-07-2019 6,1     18,1     29,1 23,0 28 61 93 1.016 1.018 1.020 SSO 3,1 30,6 0,0
23-07-2019 5,4     17,8     29,3 23,9 31 60 92 1.018 1.020 1.023 SSO 4,2 33,8 0,0
22-07-2019 5,6     17,5     28,4 22,8 24 57 91 1.022 1.023 1.024 SSO 4,6 29,0 0,0
Últims 13 mesos disponibles
07/2019 2,9 6,8 13,5 16,9 21,2 26,4 32,1 29,2 57 69 83 1.008 1.015 1.023 SSO 2,7 38,6 44,8
Tots els anys disponibles
Temperatura (°C)
Humitat relativa (%)
Velocitat del vent i ràfega màxima (km/h)
Direcció del vent (°)
Pressió (hPa)
Precipitació (mm)
Nota sobre les dades: s'avisa a l'usuari de la provisionalitat i no oficialitat d'aquestes dades
Logo AVAMET blanc
Web allotjada a Sollutia
Llicència de Creative CommonsLa web d'AVAMET i els seus continguts estan subjectes a una llicència de
Reconeixement - No Comercial - Compartir igual
Properes estacions: Altea - Club Nàutic d'Altea (Soci), Ares del Maestrat (Ajuntament Soci),      - - - - -      Últimes estacions: Catadau - Urb. Lloma Molina (Inforatge), Ontinyent - El Pilar (Soci) - - -